Historyczne dane pomiarowe

Dodano dane terminowe – wersja testowa.

Dane z okresu 1951-2019

Wersja bazy: 1.34 [2019-03-16, lista zmian], aktualizacja planowana na 2019-04-15

Dane meteo z obszaru Polski uzyskane na podstawie danych udostępnionych przez Instytut Meteorologii i Gospodarki Wodnej – Państwowy Instytut Badawczy.

 

Wybierz Datę:    

       

TemperaturaWilgotnośćWiatrCiśnienieOpadyŚniegCzas trwania zjawisk
 Stacja t tx tn tng RH VA  wxwx mslp ppp RRR   cm mm wxwxwxwxwxwxwx
1994-08-14 15.2 19.8 12.0 10.3 65.3- 2.7 1.7---- 0.0------------
1994-08-13 17.7 22.6 14.8 14.2 81.0- 6.7 2.7---- 0.0------------
1994-08-12 16.4 21.6 14.0 12.0 88.3- 7.0 1.3---- 5.5------------
1994-08-11 18.9 24.1 15.2 13.7 89.8- 5.3 1.3---- 31.2------------
1994-08-10 20.8 29.0 11.0 10.1 76.3- 2.3 0.7---- 2.9------------
1994-08-09 18.1 21.5 16.0 15.3 94.5- 6.0 0.7---- 6.5------------
1994-08-08 21.3 29.6 16.8 15.4 85.3- 6.3 1.0---- 1.5------------
1994-08-07 23.4 30.3 16.9 15.2 72.3- 4.7 1.0---- 0.9------------
1994-08-06 23.4 33.0 12.5 10.5 64.8- 3.7 1.0---- 0.0------------
1994-08-05 22.4 31.0 12.9 10.6 69.3- 1.0 0.3---- 0.0------------
1994-08-04 21.2 29.2 14.2 12.8 76.0- 1.3 0.7---- 0.0------------
1994-08-03 22.8 29.9 13.7 11.9 70.0- 3.0 0.3---- 1.2------------
1994-08-02 22.9 29.7 16.7 14.6 74.8- 5.0 0.3---- 0.0------------
1994-08-01 24.9 34.2 15.2 13.6 57.0- 3.0 1.0---- 0.0------------
1994-07-31 23.9 34.2 12.4 10.7 61.8- 2.0 0.7---- 0.0------------
1994-07-30 23.7 34.0 10.2 8.7 57.5- 1.0 0.7---- 0.0------------
1994-07-29 23.5 32.9 9.4 7.8 56.5- 0.7 0.7---- 0.0------------
1994-07-28 22.5 32.4 10.6 8.6 58.3- 1.7 0.0---- 0.0------------
1994-07-27 22.2 32.3 11.0 9.1 63.5- 2.0 0.3---- 0.0------------
1994-07-26 22.4 31.6 11.2 9.8 64.0- 1.7 0.3---- 0.0------------
1994-07-25 20.4 30.1 9.7 8.2 73.3- 2.3 0.3---- 0.3------------
1994-07-24 20.7 30.1 9.0 7.4 64.3- 3.0 0.3---- 0.0------------
1994-07-23 19.7 28.1 7.4 7.3 65.0- 1.0 0.7---- 0.0------------
1994-07-22 18.9 27.7 6.5 5.2 63.8- 0.7 0.3---- 0.0------------
1994-07-21 17.6 26.0 5.7 4.3 67.8- 0.3 0.3---- 0.0------------
1994-07-20 18.5 23.1 11.8 10.3 66.0- 3.0 1.0---- 0.0------------
1994-07-19 18.6 24.2 13.7 12.4 80.5- 5.7 0.7---- 0.0------------
1994-07-18 20.0 26.1 13.8 12.8 81.5- 4.3 0.7---- 0.1------------
1994-07-17 19.8 28.4 11.9 10.9 84.8- 3.7 0.3---- 8.8------------
1994-07-16 19.9 27.2 11.6 10.5 85.8- 3.7 0.7---- 1.1------------
1994-07-15 20.3 28.2 10.2 9.0 77.3- 2.3 0.3---- 0.0------------
1994-07-14 20.6 28.2 10.4 10.2 72.0- 4.0 0.3---- 0.0------------
1994-07-13 18.5 26.7 9.0 8.0 73.5- 3.7 1.0---- 0.0------------
1994-07-12 19.4 24.9 12.4 10.0 73.8- 1.7 1.3---- 0.0------------
1994-07-11 16.3 23.0 9.4 8.0 84.3- 6.7 0.0---- 0.0------------
1994-07-10 14.8 19.6 11.8 11.1 89.5- 5.7 1.0---- 5.3------------
1994-07-09 14.7 18.6 13.3 11.7 76.3- 7.3 1.0---- 5.0------------
1994-07-08 16.1 20.0 12.0 10.2 71.8- 3.3 2.7---- 0.5------------
1994-07-07 15.8 25.2 8.1 7.9 88.8- 7.0 0.3---- 5.2------------
1994-07-06 20.0 25.0 10.4 8.7 69.0- 2.7 0.3---- 0.0------------
1994-07-05 19.2 25.7 10.6 9.3 75.5- 6.3 0.0---- 0.0------------
1994-07-04 19.8 29.0 7.3 5.7 65.5- 0.7 0.3---- 0.0------------
1994-07-03 17.8 27.0 6.5 4.8 67.5- 0.7 0.3---- 0.0------------
1994-07-02 18.0 25.1 6.7 5.2 67.5- 0.3 0.7---- 0.0------------
1994-07-01 19.0 23.2 15.9 15.8 70.3- 2.0 0.7---- 0.0------------
1994-06-30 21.4 28.5 16.2 14.3 81.0- 5.0 2.0---- 0.0------------
1994-06-29 23.2 31.0 12.9 11.5 77.5- 1.3 0.3---- 0.0------------
1994-06-28 22.9 31.2 15.2 13.0 77.8- 3.0 0.7---- 0.0------------
1994-06-27 24.2 31.7 14.1 11.8 75.0- 1.3 0.3---- 0.0------------
1994-06-26 19.3 29.1 6.2 4.3 66.3- 0.3 1.3---- 0.0------------
1994-06-25 14.9 25.1 2.1 0.2 58.5- 0.0 0.3---- 0.0------------
1994-06-24 13.6 21.1 3.7 1.9 64.3- 0.3 2.0---- 0.0------------
1994-06-23 17.2 23.2 13.6 13.4 69.5- 6.3 2.7---- 0.0------------
1994-06-22 17.8 27.0 6.4 5.0 68.5- 3.7 1.7---- 0.0------------
1994-06-21 15.0 20.8 6.2 3.9 70.0- 2.0 1.7---- 0.0------------
1994-06-20 15.6 23.4 7.4 5.3 75.8- 6.3 1.3---- 0.0------------
1994-06-19 18.8 26.2 11.0 10.4 61.0- 4.3 3.7---- 0.4------------
1994-06-18 11.7 19.8 3.5 3.5 76.8- 4.0 3.3---- 4.3------------
1994-06-17 10.7 15.0 7.9 7.9 83.0- 8.0 1.3---- 1.4------------
1994-06-16 12.6 16.9 4.5 2.5 76.5- 5.7 1.3---- 2.1------------
267.0 ms

 

Źródłem pochodzenia danych jest Instytut Meteorologii i Gospodarki Wodnej – Państwowy Instytut Badawczy. Dane Instytutu Meteorologii i Gospodarki Wodnej – Państwowego Instytutu Badawczego zostały przetworzone.

Dane źródłowe można odnaleźć na stronie https://dane.imgw.pl